This is the latest recevied weather packets stored in our database for station/object EB1HRW. If no packets are shown the sender has not sent any weather packets the latest 10 day(s).
| Time | Temp. | Humidity | Pressure | Rain* | Wind** | Luminosity | Snow |
|---|---|---|---|---|---|---|---|
| 1778212440 | 8.33° C | 85% | 1008.6 hPa | 0 mm | - | - | - |
| 1778211540 | 8.89° C | 84% | 1008.6 hPa | 0 mm | - | - | - |
| 1778210639 | 8.89° C | 84% | 1008.5 hPa | 0 mm | - | - | - |
| 1778209739 | 8.89° C | 84% | 1008.3 hPa | 0 mm | - | - | - |
| 1778208839 | 9.44° C | 83% | 1008.3 hPa | 0 mm | - | - | - |
| 1778207939 | 9.44° C | 84% | 1008.3 hPa | 0 mm | - | - | - |
| 1778207039 | 9.44° C | 84% | 1008.3 hPa | 0 mm | - | - | - |
| 1778206141 | 9.44° C | 83% | 1008.6 hPa | 0 mm | - | - | - |
| 1778205241 | 10° C | 82% | 1008.6 hPa | 0 mm | - | - | - |
| 1778204340 | 10° C | 81% | 1008.7 hPa | 0 mm | - | - | - |
| 1778203440 | 10.56° C | 80% | 1009 hPa | 0 mm | - | - | - |
| 1778202540 | 11.11° C | 76% | 1009.2 hPa | 0 mm | - | - | - |
| 1778201640 | 11.11° C | 78% | 1009.4 hPa | 0 mm | - | - | - |
| 1778200740 | 11.67° C | 75% | 1009.6 hPa | 0 mm | - | - | - |
| 1778199840 | 12.22° C | 75% | 1009.6 hPa | 0 mm | - | - | - |
| 1778198940 | 12.22° C | 75% | 1009.7 hPa | 0 mm | - | - | - |
| 1778198039 | 12.22° C | 75% | 1009.7 hPa | 0 mm | - | - | - |
| 1778197139 | 12.22° C | 76% | 1009.8 hPa | 0 mm | - | - | - |
| 1778196239 | 11.67° C | 77% | 1009.8 hPa | 0 mm | - | - | - |
| 1778195339 | 11.67° C | 77% | 1009.9 hPa | 0 mm | - | - | - |
| 1778194441 | 12.22° C | 76% | 1010.1 hPa | 0 mm | - | - | - |
| 1778193539 | 12.22° C | 77% | 1010.2 hPa | 0 mm | - | - | - |
| 1778192640 | 12.22° C | 76% | 1010.3 hPa | 0 mm | - | - | - |
| 1778191739 | 12.78° C | 75% | 1010.1 hPa | 0 mm | - | - | - |
| 1778190839 | 12.78° C | 75% | 1010.1 hPa | 0 mm | - | - | - |
* Rain latest hour (hover to see other rain measurements)
** Current wind speed in m/s (hover to see current wind gust speed)